Time;durP1;ratioP1;P1;durP2;ratioP2;P2;SDS_P1;SDS_P2;PMS_P1;PMS_P2;Temp;Humidity;BMP_temperature;BMP_pressure;BME280_temperature;BME280_humidity;BME280_pressure;Samples;Min_cycle;Max_cycle;Signal;HPM_P1;HPM_P2
2021/05/06 00:02:15;;;;;;;;;1.00;1.00;;;;;20.70;18.51;98023.53;4983684;28;8763;-43
2021/05/06 00:06:11;;;;;;;;;1.00;1.00;;;;;20.64;18.95;98025.00;4981183;28;8779;-44
2021/05/06 00:34:23;;;;;;;;;1.00;1.00;;;;;20.25;17.70;98030.78;5000224;28;8795;-44
2021/05/06 00:36:49;;;;;;;;;1.00;1.00;;;;;20.25;17.37;98025.31;5002098;28;8859;-44
2021/05/06 00:39:19;;;;;;;;;1.00;1.00;;;;;20.32;17.28;98024.63;4998980;28;8795;-44
2021/05/06 01:04:46;;;;;;;;;1.00;1.00;;;;;20.32;16.47;98035.56;4999124;28;8772;-44
2021/05/06 01:12:24;;;;;;;;;1.00;1.00;;;;;20.33;16.15;98026.94;5000369;28;8769;-44
2021/05/06 01:14:50;;;;;;;;;1.00;1.00;;;;;20.34;16.13;98034.00;5002255;28;8854;-43
2021/05/06 01:17:15;;;;;;;;;1.00;1.00;;;;;20.32;16.27;98030.88;5002462;28;8840;-44
2021/05/06 01:19:41;;;;;;;;;1.00;1.00;;;;;20.33;16.25;98032.44;4999356;28;9919;-44
2021/05/06 01:22:06;;;;;;;;;1.00;1.00;;;;;20.33;16.25;98031.66;4997830;28;8881;-44
2021/05/06 01:24:33;;;;;;;;;1.00;1.00;;;;;20.34;15.96;98033.25;4997190;28;8804;-44
2021/05/06 01:32:14;;;;;;;;;1.00;1.00;;;;;20.35;16.15;98038.34;5001406;28;8792;-44
2021/05/06 01:34:40;;;;;;;;;1.00;1.00;;;;;20.36;15.84;98036.38;5004231;28;8985;-43
2021/05/06 01:37:12;;;;;;;;;1.00;1.00;;;;;20.37;15.82;98036.00;5002485;28;8836;-44
2021/05/06 01:39:57;;;;;;;;;1.00;1.00;;;;;20.31;15.90;98028.50;5007499;28;8974;-43
2021/05/06 01:47:36;;;;;;;;;1.00;1.00;;;;;20.39;15.87;98047.38;4980728;28;8788;-44
2021/05/06 02:00:57;;;;;;;;;1.00;1.00;;;;;20.41;15.60;98045.06;4983690;28;8841;-44
2021/05/06 02:03:23;;;;;;;;;1.00;1.00;;;;;20.40;15.52;98043.50;4999775;28;8792;-44
2021/05/06 02:05:48;;;;;;;;;1.00;1.00;;;;;20.43;15.52;98037.25;4999992;28;8827;-44
2021/05/06 02:08:14;;;;;;;;;1.00;1.00;;;;;20.41;15.68;98039.56;4999764;28;8904;-44
2021/05/06 02:10:39;;;;;;;;;1.00;1.00;;;;;20.42;15.59;98038.44;4998741;28;8838;-44
2021/05/06 02:13:05;;;;;;;;;1.00;1.00;;;;;20.45;15.53;98039.63;4980651;28;8807;-44
2021/05/06 02:15:42;;;;;;;;;1.00;1.00;;;;;20.45;15.65;98036.09;4982266;28;9562;-44
2021/05/06 02:18:08;;;;;;;;;1.00;1.00;;;;;20.40;15.53;98035.28;4981285;28;8820;-44
2021/05/06 02:20:34;;;;;;;;;1.00;1.00;;;;;20.45;15.56;98039.63;4981309;28;8900;-44
2021/05/06 02:23:02;;;;;;;;;1.00;1.00;;;;;20.42;15.38;98038.44;4993275;28;8776;-44
2021/05/06 02:25:28;;;;;;;;;1.00;1.00;;;;;20.42;15.50;98046.66;4999018;28;8788;-44
2021/05/06 02:27:53;;;;;;;;;1.00;1.00;;;;;20.41;15.36;98045.06;5001712;28;8800;-44
2021/05/06 02:30:18;;;;;;;;;1.00;1.00;;;;;20.42;15.36;98046.66;4999771;28;8868;-44
2021/05/06 02:32:45;;;;;;;;;1.00;1.00;;;;;20.41;15.44;98047.78;5002143;28;8868;-44
2021/05/06 02:35:10;;;;;;;;;1.00;1.00;;;;;20.41;15.46;98050.53;5000714;28;8899;-44
2021/05/06 02:37:35;;;;;;;;;1.00;1.00;;;;;20.43;15.37;98042.72;4999448;28;8779;-44
2021/05/06 02:40:02;;;;;;;;;1.00;1.00;;;;;20.41;15.33;98052.50;5004379;28;8792;-44
2021/05/06 02:42:27;;;;;;;;;1.00;1.00;;;;;20.47;15.23;98055.69;5003607;28;8926;-43
2021/05/06 02:44:53;;;;;;;;;1.00;1.00;;;;;20.47;15.22;98052.94;5003094;28;8945;-44
2021/05/06 02:47:18;;;;;;;;;1.00;1.00;;;;;20.45;15.29;98056.06;5000185;28;8812;-44
2021/05/06 02:49:46;;;;;;;;;1.00;1.00;;;;;20.46;15.36;98057.66;4997061;28;8808;-44
2021/05/06 02:52:34;;;;;;;;;1.00;1.00;;;;;20.46;15.36;98056.84;5001151;28;8854;-44
2021/05/06 02:55:10;;;;;;;;;1.00;1.00;;;;;20.45;15.17;98053.31;5000378;28;8832;-44
2021/05/06 02:57:40;;;;;;;;;1.00;1.00;;;;;20.45;15.30;98055.28;4976480;28;8870;-44
2021/05/06 03:02:53;;;;;;;;;1.00;1.00;;;;;20.46;15.34;98051.38;4980440;28;8805;-44
2021/05/06 03:05:21;;;;;;;;;1.00;1.00;;;;;20.46;15.14;98051.38;4995691;28;8792;-44
2021/05/06 03:08:22;;;;;;;;;1.00;1.00;;;;;20.41;15.38;98050.53;5000156;28;8780;-44
2021/05/06 03:23:55;;;;;;;;;1.00;1.00;;;;;20.40;15.09;98059.94;5016740;28;8784;-44
2021/05/06 03:26:21;;;;;;;;;1.00;1.00;;;;;20.42;15.33;98054.84;5000598;28;8804;-44
2021/05/06 03:28:52;;;;;;;;;1.00;1.00;;;;;20.41;15.24;98055.22;4989423;28;8864;-44
2021/05/06 03:42:10;;;;;;;;;1.00;1.00;;;;;20.43;14.99;98064.63;5003619;28;8855;-44
2021/05/06 03:47:40;;;;;;;;;1.00;1.00;;;;;20.42;15.23;98068.56;4991112;28;8804;-44
2021/05/06 04:12:28;;;;;;;;;1.00;1.00;;;;;20.41;14.95;98080.66;4999573;28;8796;-44
2021/05/06 04:36:16;;;;;;;;;1.00;1.00;;;;;20.48;17.95;98109.31;4995004;28;9544;-44
2021/05/06 04:38:42;;;;;;;;;1.00;1.00;;;;;20.38;18.27;98100.56;4987888;28;8953;-44
2021/05/06 04:54:42;;;;;;;;;1.00;1.00;;;;;20.26;17.36;98117.22;5000747;28;8827;-44
2021/05/06 05:05:08;;;;;;;;;1.00;1.00;;;;;20.16;16.37;98128.81;4995364;28;8775;-44
2021/05/06 05:07:37;;;;;;;;;1.00;1.00;;;;;20.18;16.36;98126.50;4983491;28;8803;-44
2021/05/06 05:17:40;;;;;;;;;1.60;1.60;;;;;20.17;16.19;98131.16;4999312;28;8776;-44
2021/05/06 05:18:06;;;;;;;;;1.00;1.00;;;;;20.16;15.98;98131.56;4983505;28;9574;-44
2021/05/06 05:20:44;;;;;;;;;1.20;1.20;;;;;20.18;15.91;98129.25;4982077;28;8833;-44
2021/05/06 05:25:47;;;;;;;;;1.00;1.00;;;;;20.22;15.62;98124.59;4987620;28;8792;-44
2021/05/06 05:28:12;;;;;;;;;1.00;1.00;;;;;20.22;15.71;98130.06;5000053;28;8788;-44
2021/05/06 05:30:40;;;;;;;;;1.00;1.00;;;;;20.21;15.43;98125.75;4978180;28;8969;-44
2021/05/06 05:33:15;;;;;;;;;1.00;1.00;;;;;20.20;15.44;98124.97;4978665;28;8806;-43
2021/05/06 05:36:09;;;;;;;;;1.00;1.00;;;;;20.24;15.26;98128.56;4979936;28;8922;-44
2021/05/06 05:38:48;;;;;;;;;1.00;1.00;;;;;20.24;15.32;98125.81;4994839;28;8772;-43
2021/05/06 05:55:06;;;;;;;;;1.00;1.00;;;;;20.30;15.16;98131.75;4912411;29;8849;-44
2021/05/06 05:57:31;;;;;;;;;1.00;1.00;;;;;20.33;15.16;98131.00;4962678;28;8879;-44
2021/05/06 05:59:56;;;;;;;;;1.00;1.00;;;;;20.32;15.13;98136.88;4983594;28;9655;-44
2021/05/06 06:02:22;;;;;;;;;1.00;1.00;;;;;20.29;15.25;98132.91;4990492;28;8836;-44
2021/05/06 06:04:47;;;;;;;;;1.00;1.00;;;;;20.29;15.07;98134.88;5001140;28;9535;-45
2021/05/06 06:07:12;;;;;;;;;1.00;1.00;;;;;20.30;15.14;98142.72;4997444;28;8958;-44
2021/05/06 06:09:37;;;;;;;;;1.00;1.00;;;;;20.30;15.18;98137.25;5001873;28;8812;-44
2021/05/06 06:12:03;;;;;;;;;1.00;1.00;;;;;20.24;15.04;98136.78;4982033;28;8894;-44
2021/05/06 06:14:55;;;;;;;;;1.00;1.00;;;;;20.32;15.21;98137.66;4978900;28;8791;-44
2021/05/06 06:17:16;;;;;;;;;1.80;1.80;;;;;20.34;15.08;98135.34;4967832;28;11538;-44
2021/05/06 06:19:48;;;;;;;;;1.00;1.00;;;;;20.33;15.24;98132.97;4989530;28;8897;-44
2021/05/06 06:22:15;;;;;;;;;1.00;1.00;;;;;20.32;15.23;98134.91;4994485;28;8800;-44
2021/05/06 06:24:41;;;;;;;;;1.00;1.00;;;;;20.37;15.19;98140.06;4981133;28;8795;-44
2021/05/06 06:27:06;;;;;;;;;1.00;1.00;;;;;20.40;14.93;98136.59;4975327;28;8799;-44
2021/05/06 06:29:33;;;;;;;;;1.00;1.00;;;;;20.40;15.19;98136.59;4991084;28;11479;-44
2021/05/06 06:32:01;;;;;;;;;2.00;2.00;;;;;20.41;14.95;98137.38;4999062;28;8874;-44
2021/05/06 06:34:26;;;;;;;;;1.00;1.00;;;;;20.46;14.84;98139.03;4998386;28;8772;-44
2021/05/06 06:36:51;;;;;;;;;1.00;1.00;;;;;20.43;15.17;98138.56;5003143;28;8850;-44
2021/05/06 06:39:17;;;;;;;;;1.00;1.00;;;;;20.44;14.74;98139.38;5002351;28;8799;-44
2021/05/06 06:41:45;;;;;;;;;1.00;1.00;;;;;20.45;14.95;98143.69;5001200;28;8815;-44
2021/05/06 06:44:14;;;;;;;;;1.00;1.00;;;;;20.47;14.79;98144.09;4984907;28;8803;-44
2021/05/06 06:46:40;;;;;;;;;1.00;1.00;;;;;20.49;14.84;98141.81;4987044;28;8784;-44
2021/05/06 06:49:05;;;;;;;;;1.00;1.00;;;;;20.52;14.98;98137.53;4996908;28;8784;-44
2021/05/06 06:51:31;;;;;;;;;1.00;1.00;;;;;20.54;14.73;98144.19;4982356;28;8823;-44
2021/05/06 06:53:56;;;;;;;;;1.00;1.00;;;;;20.49;14.67;98144.53;4997753;28;8838;-44
2021/05/06 06:56:22;;;;;;;;;1.50;1.00;;;;;20.51;14.66;98141.41;4999427;28;8796;-44
2021/05/06 06:58:52;;;;;;;;;1.50;1.00;;;;;20.48;14.74;98139.44;4992826;28;8861;-44
2021/05/06 07:01:18;;;;;;;;;1.00;1.00;;;;;20.48;14.91;98142.16;4978266;28;8811;-44
2021/05/06 07:03:44;;;;;;;;;1.00;1.00;;;;;20.53;14.66;98144.59;4999549;28;8901;-44
2021/05/06 07:06:09;;;;;;;;;1.00;1.00;;;;;20.56;14.80;98141.09;5000947;28;8788;-44
2021/05/06 07:08:37;;;;;;;;;1.00;1.00;;;;;20.54;14.58;98146.16;4998506;28;9668;-44
2021/05/06 07:11:05;;;;;;;;;1.00;1.00;;;;;20.54;14.96;98146.16;4999125;28;8781;-44
2021/05/06 07:13:32;;;;;;;;;1.00;1.00;;;;;20.59;14.50;98143.88;5001440;28;8834;-44
2021/05/06 07:16:00;;;;;;;;;1.00;1.00;;;;;20.58;14.71;98136.84;4999288;28;8819;-44
2021/05/06 07:18:27;;;;;;;;;1.80;1.80;;;;;20.59;14.78;98141.13;4999168;28;8859;-44
2021/05/06 07:20:53;;;;;;;;;1.00;1.00;;;;;20.61;14.50;98140.75;4999380;28;8788;-45
2021/05/06 07:23:21;;;;;;;;;1.20;1.20;;;;;20.60;14.55;98147.41;4997140;28;8834;-44
2021/05/06 07:25:47;;;;;;;;;1.00;1.00;;;;;20.62;14.60;98145.13;4989315;28;9561;-45
2021/05/06 07:28:15;;;;;;;;;2.00;2.00;;;;;20.61;14.60;98147.09;4980395;28;8806;-44
2021/05/06 07:30:42;;;;;;;;;1.00;1.00;;;;;20.63;14.64;98145.91;4974946;28;8803;-44
2021/05/06 07:33:12;;;;;;;;;1.00;1.00;;;;;20.67;14.54;98155.75;4980007;28;8803;-44
2021/05/06 07:35:38;;;;;;;;;1.20;1.20;;;;;20.64;14.38;98144.75;4980083;28;8836;-44
2021/05/06 07:38:07;;;;;;;;;1.00;1.00;;;;;20.65;14.75;98152.63;4979472;28;9708;-44
2021/05/06 07:40:34;;;;;;;;;1.00;1.00;;;;;20.64;14.70;98148.28;4982759;28;8792;-44
2021/05/06 07:43:00;;;;;;;;;1.60;1.60;;;;;20.64;14.53;98151.03;4999201;28;9520;-43
2021/05/06 07:45:26;;;;;;;;;2.00;2.00;;;;;20.63;14.66;98148.66;5001745;28;8816;-45
2021/05/06 07:47:51;;;;;;;;;1.00;1.00;;;;;20.67;14.62;98144.00;4997006;28;8838;-44
2021/05/06 07:50:18;;;;;;;;;1.00;1.00;;;;;20.64;14.60;98142.81;4987245;28;11525;-43
2021/05/06 07:52:46;;;;;;;;;1.40;1.40;;;;;20.66;14.47;98137.72;4982058;28;8788;-44
2021/05/06 07:55:12;;;;;;;;;1.00;1.00;;;;;20.65;14.61;98147.13;4994470;28;8858;-44
2021/05/06 07:57:39;;;;;;;;;1.00;1.00;;;;;20.66;14.52;98148.69;4998576;28;8847;-44
2021/05/06 08:00:06;;;;;;;;;1.00;1.00;;;;;20.63;14.66;98143.94;4996184;28;8804;-44
2021/05/06 08:02:32;;;;;;;;;2.00;2.00;;;;;20.65;14.75;98143.59;4994109;28;8827;-44
2021/05/06 08:04:57;;;;;;;;;1.00;1.00;;;;;20.68;14.74;98146.38;5000549;28;8796;-45
2021/05/06 08:07:22;;;;;;;;;1.00;1.00;;;;;20.66;14.53;98150.66;4994098;28;8869;-44
2021/05/06 08:09:48;;;;;;;;;2.00;2.00;;;;;20.66;14.56;98145.94;4979457;28;8826;-44
2021/05/06 08:12:14;;;;;;;;;1.20;1.20;;;;;20.70;14.73;98148.75;4977512;28;8861;-44
2021/05/06 08:14:40;;;;;;;;;1.00;1.00;;;;;20.72;14.64;98149.16;4992790;28;8827;-44
2021/05/06 08:17:05;;;;;;;;;1.00;1.00;;;;;20.69;14.60;98142.47;4997419;28;9548;-44
2021/05/06 08:19:31;;;;;;;;;2.00;2.00;;;;;20.67;14.61;98142.06;4998572;28;9556;-43
2021/05/06 08:21:56;;;;;;;;;1.75;1.75;;;;;20.73;14.57;98137.81;4997529;28;8792;-44
2021/05/06 08:24:22;;;;;;;;;1.00;1.00;;;;;20.77;14.49;98143.34;5000494;28;12007;-44
2021/05/06 08:26:48;;;;;;;;;2.00;1.20;;;;;20.77;14.51;98143.34;4996725;28;9528;-44
2021/05/06 08:29:13;;;;;;;;;2.00;2.00;;;;;20.76;14.32;98128.88;4998557;28;8845;-45
2021/05/06 08:31:38;;;;;;;;;1.00;1.00;;;;;20.74;14.55;98138.63;5000789;28;8808;-44
2021/05/06 08:34:03;;;;;;;;;2.25;2.25;;;;;20.77;14.51;98138.69;4997387;28;8832;-44
2021/05/06 08:36:29;;;;;;;;;1.00;1.00;;;;;20.76;14.43;98137.09;4999194;28;8816;-43
2021/05/06 08:38:55;;;;;;;;;1.00;1.00;;;;;20.77;14.54;98138.69;5003240;28;8792;-43
2021/05/06 08:41:21;;;;;;;;;1.00;1.00;;;;;20.77;14.67;98127.72;5002008;28;8792;-43
2021/05/06 08:43:55;;;;;;;;;1.40;1.40;;;;;20.76;14.58;98130.81;4998163;28;9484;-43
2021/05/06 08:46:21;;;;;;;;;1.00;1.00;;;;;20.77;14.46;98130.44;4983689;28;8825;-43
2021/05/06 08:48:47;;;;;;;;;1.00;1.00;;;;;20.84;14.33;98127.00;4985690;28;8827;-43
2021/05/06 08:51:15;;;;;;;;;1.00;1.00;;;;;20.88;14.09;98132.50;4986058;28;8807;-43
2021/05/06 08:53:43;;;;;;;;;1.00;1.00;;;;;20.89;14.44;98131.34;4981405;28;8869;-43
2021/05/06 08:56:09;;;;;;;;;1.00;1.00;;;;;20.99;14.91;98136.19;4981577;28;8806;-43
2021/05/06 08:58:34;;;;;;;;;1.75;1.00;;;;;20.95;15.95;98127.13;4983794;28;8809;-44
2021/05/06 09:01:00;;;;;;;;;1.00;1.00;;;;;20.90;16.39;98130.22;4981396;28;8795;-43
2021/05/06 09:03:25;;;;;;;;;1.50;1.50;;;;;20.83;17.02;98141.09;4985913;28;8873;-43
2021/05/06 09:06:27;;;;;;;;;1.00;1.00;;;;;20.73;17.56;98142.53;4985199;28;8791;-43
2021/05/06 09:08:57;;;;;;;;;1.00;1.00;;;;;20.69;17.65;98144.44;4999072;28;8849;-44
2021/05/06 09:11:30;;;;;;;;;1.00;1.00;;;;;20.61;18.07;98147.09;5001460;28;8831;-43
2021/05/06 09:14:10;;;;;;;;;1.00;1.00;;;;;20.54;18.18;98152.41;4990563;28;8815;-43
2021/05/06 09:16:41;;;;;;;;;1.00;1.00;;;;;20.48;18.56;98145.69;4986599;28;8784;-43
2021/05/06 09:19:14;;;;;;;;;1.00;1.00;;;;;20.58;17.49;98157.97;5001100;28;8949;-43
2021/05/06 09:21:43;;;;;;;;;1.00;1.00;;;;;20.72;16.79;98152.69;5005043;28;8812;-43
2021/05/06 09:24:12;;;;;;;;;1.00;1.00;;;;;20.67;16.76;98150.28;5004139;28;8789;-43
2021/05/06 09:26:39;;;;;;;;;1.00;1.00;;;;;20.61;16.66;98157.19;5001945;28;8807;-43
2021/05/06 09:29:08;;;;;;;;;1.00;1.00;;;;;20.54;16.47;98157.09;4998747;28;8788;-43
2021/05/06 09:31:38;;;;;;;;;1.00;1.00;;;;;20.52;16.26;98160.22;5003442;28;8772;-43
2021/05/06 09:34:06;;;;;;;;;1.00;1.00;;;;;20.59;16.16;98159.53;5000974;28;8923;-44
2021/05/06 09:36:32;;;;;;;;;1.00;1.00;;;;;20.60;15.72;98150.16;5001017;28;8812;-43
2021/05/06 09:38:58;;;;;;;;;1.00;1.00;;;;;20.65;15.60;98152.63;5001706;28;8844;-44
2021/05/06 09:41:41;;;;;;;;;1.00;1.00;;;;;20.67;15.48;98147.53;4999937;28;8769;-44
2021/05/06 09:44:16;;;;;;;;;1.80;1.80;;;;;20.68;15.16;98151.84;4994757;28;8841;-43
2021/05/06 09:46:43;;;;;;;;;1.00;1.00;;;;;20.60;15.40;98158.38;4982057;28;8812;-44
2021/05/06 09:49:11;;;;;;;;;2.00;2.00;;;;;20.59;15.52;98154.06;4977417;28;8810;-44
2021/05/06 09:51:49;;;;;;;;;1.80;1.80;;;;;20.59;15.39;98159.53;5004173;28;8831;-43
2021/05/06 09:54:19;;;;;;;;;2.00;2.00;;;;;20.61;15.34;98157.19;4983726;28;8842;-43
2021/05/06 09:56:44;;;;;;;;;1.20;1.20;;;;;20.63;15.23;98160.38;4994679;28;8839;-43
2021/05/06 09:59:23;;;;;;;;;2.00;2.00;;;;;20.69;15.12;98158.91;5002487;28;8796;-43
2021/05/06 10:01:48;;;;;;;;;1.00;1.00;;;;;20.74;15.04;98166.03;5001332;28;8860;-43
2021/05/06 10:04:20;;;;;;;;;1.00;1.00;;;;;20.73;15.15;98162.47;4999631;28;8808;-43
2021/05/06 10:07:08;;;;;;;;;1.00;1.00;;;;;20.70;15.05;98163.25;5001446;28;11591;-43
2021/05/06 10:09:33;;;;;;;;;1.20;1.20;;;;;20.76;14.65;98153.53;5001959;28;8815;-43
2021/05/06 10:12:00;;;;;;;;;1.25;1.00;;;;;20.78;14.83;98156.69;4981620;28;9543;-43
2021/05/06 10:14:25;;;;;;;;;1.00;1.00;;;;;20.82;14.76;98153.97;4980727;28;8887;-43
2021/05/06 10:16:51;;;;;;;;;1.25;1.25;;;;;20.85;14.73;98152.47;4980104;28;8807;-43
2021/05/06 10:19:17;;;;;;;;;1.00;1.00;;;;;20.80;14.75;98157.09;4983928;28;8803;-43
2021/05/06 10:21:46;;;;;;;;;1.00;1.00;;;;;20.82;14.64;98158.69;5003567;28;8926;-43
2021/05/06 10:24:16;;;;;;;;;1.00;1.00;;;;;20.85;14.54;98155.19;5003782;28;8772;-43
2021/05/06 10:26:42;;;;;;;;;1.00;1.00;;;;;20.88;14.66;98157.16;4998911;28;8782;-43
2021/05/06 10:29:08;;;;;;;;;1.00;1.00;;;;;20.83;14.78;98158.31;4989439;28;10071;-43
2021/05/06 10:31:39;;;;;;;;;1.00;1.00;;;;;20.81;14.71;98166.13;4977190;28;8768;-43
2021/05/06 10:34:07;;;;;;;;;1.40;1.40;;;;;20.79;14.81;98169.22;4974327;28;9233;-43
2021/05/06 10:36:34;;;;;;;;;1.00;1.00;;;;;20.79;14.51;98163.75;4982201;28;8823;-44
2021/05/06 10:39:00;;;;;;;;;1.00;1.00;;;;;20.78;14.61;98173.13;4990516;28;8796;-43
2021/05/06 10:41:29;;;;;;;;;1.00;1.00;;;;;20.79;14.58;98171.16;5001990;28;8807;-43
2021/05/06 10:44:03;;;;;;;;;2.00;2.00;;;;;20.79;14.71;98171.16;5004632;28;8804;-44
2021/05/06 10:49:24;;;;;;;;;2.60;2.00;;;;;20.85;14.60;98171.66;4998236;28;8786;-44
2021/05/06 10:52:02;;;;;;;;;1.00;1.00;;;;;20.84;14.64;98170.06;4983280;28;8805;-43
2021/05/06 10:54:49;;;;;;;;;1.20;1.20;;;;;20.86;14.50;98167.72;5000554;28;9635;-43
2021/05/06 10:57:14;;;;;;;;;1.80;1.80;;;;;20.88;14.55;98176.34;4985262;28;8862;-43
2021/05/06 10:59:42;;;;;;;;;1.00;1.00;;;;;20.83;14.58;98174.75;4995201;28;8792;-44
2021/05/06 11:02:09;;;;;;;;;1.00;1.00;;;;;20.85;14.58;98177.91;4989658;28;8806;-43
2021/05/06 11:04:40;;;;;;;;;1.60;1.60;;;;;20.85;14.57;98174.38;4981469;28;8949;-43
2021/05/06 11:07:18;;;;;;;;;1.00;1.00;;;;;20.87;14.48;98174.78;4979781;28;8771;-43
2021/05/06 11:09:43;;;;;;;;;1.00;1.00;;;;;20.90;14.56;98168.56;5001048;28;8804;-43
2021/05/06 11:12:15;;;;;;;;;1.20;1.20;;;;;20.90;14.49;98174.06;5001969;28;8832;-43
2021/05/06 11:14:58;;;;;;;;;1.00;1.00;;;;;20.87;14.50;98172.84;4997018;28;8803;-44
2021/05/06 11:17:24;;;;;;;;;2.40;2.00;;;;;20.88;14.28;98174.44;4985086;28;8834;-43
2021/05/06 11:19:49;;;;;;;;;1.00;1.00;;;;;20.87;14.31;98169.31;4982456;28;9534;-43
2021/05/06 11:22:43;;;;;;;;;1.00;1.00;;;;;20.91;14.48;98170.13;4980576;28;8811;-44
2021/05/06 11:27:53;;;;;;;;;1.00;1.00;;;;;20.94;14.42;98164.69;5003581;28;8820;-43
2021/05/06 11:30:44;;;;;;;;;1.00;1.00;;;;;20.97;14.26;98171.41;4999033;28;8808;-43
2021/05/06 11:33:39;;;;;;;;;1.00;1.00;;;;;20.92;14.47;98171.72;4981449;28;8813;-43
2021/05/06 11:36:11;;;;;;;;;1.00;1.00;;;;;20.91;14.34;98154.47;4982315;28;8791;-43
2021/05/06 11:38:36;;;;;;;;;1.00;1.00;;;;;20.90;14.42;98168.56;4984300;28;8815;-44
2021/05/06 11:41:06;;;;;;;;;2.00;2.00;;;;;20.94;14.40;98164.69;4988736;28;8824;-43
2021/05/06 11:43:35;;;;;;;;;1.20;1.20;;;;;20.93;14.21;98170.53;4991098;28;8779;-44
2021/05/06 11:46:08;;;;;;;;;2.00;2.00;;;;;20.94;14.49;98172.13;4979079;28;8829;-43
2021/05/06 11:48:35;;;;;;;;;2.00;2.00;;;;;20.93;14.51;98178.78;4980661;28;8870;-43
2021/05/06 11:51:00;;;;;;;;;1.00;1.00;;;;;20.93;14.37;98173.28;4979023;28;8775;-44
2021/05/06 11:53:25;;;;;;;;;2.00;2.00;;;;;20.96;14.36;98167.06;4973078;28;8824;-43
2021/05/06 11:55:51;;;;;;;;;2.00;2.00;;;;;20.95;14.20;98171.78;4979279;28;8824;-43
2021/05/06 11:58:26;;;;;;;;;2.00;2.00;;;;;20.94;14.27;98174.88;4995861;28;8930;-43
2021/05/06 12:00:53;;;;;;;;;1.60;1.60;;;;;21.00;14.29;98162.41;4980759;28;8834;-44
2021/05/06 12:03:19;;;;;;;;;2.00;2.00;;;;;20.95;14.33;98171.00;4979015;28;8910;-43
2021/05/06 12:05:51;;;;;;;;;2.00;2.00;;;;;20.99;14.27;98177.28;4994142;28;8870;-43
2021/05/06 12:08:16;;;;;;;;;1.40;1.40;;;;;20.98;14.25;98176.50;4998775;28;8842;-43
2021/05/06 12:10:42;;;;;;;;;2.00;2.00;;;;;21.00;14.26;98173.38;4991278;28;8787;-43
2021/05/06 12:13:09;;;;;;;;;2.00;2.00;;;;;20.99;14.19;98172.59;4978893;28;9591;-44
2021/05/06 12:15:40;;;;;;;;;1.00;1.00;;;;;21.00;14.23;98173.38;4982722;28;9738;-44
2021/05/06 12:18:16;;;;;;;;;1.00;1.00;;;;;21.00;14.10;98162.41;4978847;28;8908;-44
2021/05/06 12:20:57;;;;;;;;;1.00;1.00;;;;;21.02;14.19;98175.75;4980253;28;8779;-44
2021/05/06 12:23:26;;;;;;;;;1.20;1.20;;;;;20.99;14.16;98171.81;4979409;28;8823;-44
2021/05/06 12:25:52;;;;;;;;;2.00;2.00;;;;;21.01;14.19;98161.25;4988579;28;8833;-43
2021/05/06 12:28:18;;;;;;;;;2.00;2.00;;;;;21.03;14.12;98160.88;4997855;28;8812;-44
2021/05/06 12:30:44;;;;;;;;;2.20;2.20;;;;;21.04;14.19;98152.28;4980647;28;9512;-43
2021/05/06 12:33:09;;;;;;;;;2.00;2.00;;;;;21.02;14.05;98164.78;4996848;28;8979;-44
2021/05/06 12:35:53;;;;;;;;;1.00;1.00;;;;;21.05;14.06;98159.34;4987976;28;8791;-44
2021/05/06 12:38:19;;;;;;;;;1.80;1.80;;;;;21.07;14.19;98162.50;4983130;28;8805;-43
2021/05/06 12:40:45;;;;;;;;;1.00;1.00;;;;;21.02;14.11;98162.03;4985412;28;9524;-44
2021/05/06 12:43:26;;;;;;;;;2.00;2.00;;;;;21.02;14.13;98162.84;5000691;28;8867;-43
2021/05/06 12:46:02;;;;;;;;;2.00;2.00;;;;;21.03;14.23;98163.63;4983184;28;8822;-44
2021/05/06 12:49:04;;;;;;;;;2.00;2.00;;;;;21.03;13.95;98167.16;4997937;28;8804;-44
2021/05/06 12:51:34;;;;;;;;;2.00;2.00;;;;;21.04;14.13;98163.25;4974916;28;8799;-44
2021/05/06 12:54:06;;;;;;;;;2.00;2.00;;;;;21.07;14.19;98169.94;4996037;28;8812;-44
2021/05/06 12:56:39;;;;;;;;;1.80;1.80;;;;;21.10;13.94;98166.44;4999755;28;8907;-44
2021/05/06 12:59:25;;;;;;;;;2.00;2.00;;;;;21.16;14.10;98167.72;4999140;28;8991;-44
2021/05/06 13:01:52;;;;;;;;;2.60;2.60;;;;;21.14;14.16;98162.59;4997800;28;8779;-44
2021/05/06 13:04:19;;;;;;;;;1.00;1.00;;;;;21.13;13.80;98166.50;5000362;28;8804;-43
2021/05/06 13:06:44;;;;;;;;;1.00;1.00;;;;;21.14;14.02;98153.56;4998265;28;8789;-44
2021/05/06 13:09:15;;;;;;;;;1.75;1.75;;;;;21.14;13.81;98161.78;4982968;28;8807;-44
2021/05/06 13:11:41;;;;;;;;;2.00;2.00;;;;;21.10;14.05;98160.97;4993992;28;8791;-45
2021/05/06 13:14:07;;;;;;;;;1.40;1.40;;;;;21.07;13.81;98159.78;4997742;28;8816;-43
2021/05/06 13:16:38;;;;;;;;;1.50;1.50;;;;;21.08;13.96;98163.31;5000249;28;8839;-43
2021/05/06 13:19:09;;;;;;;;;1.00;1.00;;;;;21.14;13.83;98161.78;4996745;28;8856;-43
2021/05/06 13:21:35;;;;;;;;;2.00;2.00;;;;;21.21;13.71;98161.09;5000741;28;8816;-43
2021/05/06 13:24:02;;;;;;;;;2.00;2.00;;;;;21.32;14.00;98167.50;5002507;28;8807;-43
2021/05/06 13:26:39;;;;;;;;;1.80;1.80;;;;;21.33;14.71;98158.06;4999044;28;8781;-44
2021/05/06 13:29:07;;;;;;;;;2.20;2.20;;;;;21.27;15.49;98162.34;4987894;28;8803;-44
2021/05/06 13:31:36;;;;;;;;;2.00;2.00;;;;;21.20;16.05;98167.75;4980302;28;8778;-44
2021/05/06 13:34:24;;;;;;;;;2.40;2.40;;;;;21.10;16.58;98164.50;4983885;28;8787;-45
2021/05/06 13:37:03;;;;;;;;;1.60;1.60;;;;;21.03;16.92;98166.38;4980412;28;8861;-45
2021/05/06 13:39:32;;;;;;;;;1.60;1.60;;;;;20.93;17.32;98167.81;4978808;28;8791;-44
2021/05/06 13:41:58;;;;;;;;;2.00;2.00;;;;;20.87;17.48;98164.63;4980153;28;8822;-44
2021/05/06 13:44:25;;;;;;;;;1.00;1.00;;;;;20.82;17.49;98162.19;4980049;28;8879;-44
2021/05/06 13:46:53;;;;;;;;;1.40;1.40;;;;;20.73;17.88;98165.22;4981995;28;8977;-44
2021/05/06 13:49:21;;;;;;;;;2.00;2.00;;;;;20.86;17.10;98168.53;4983730;28;8801;-45
2021/05/06 13:51:47;;;;;;;;;1.00;1.00;;;;;21.04;16.38;98162.47;5004187;28;8814;-44
2021/05/06 13:54:12;;;;;;;;;1.00;1.00;;;;;21.12;15.96;98153.94;5002640;28;8804;-44
2021/05/06 13:56:37;;;;;;;;;1.25;1.25;;;;;21.02;15.93;98162.03;4998509;28;8865;-44
2021/05/06 13:59:03;;;;;;;;;1.50;1.50;;;;;21.01;15.65;98158.53;4994972;28;8811;-43
2021/05/06 14:01:29;;;;;;;;;2.50;2.00;;;;;20.97;15.61;98158.47;4982370;28;8846;-43
2021/05/06 14:03:57;;;;;;;;;1.80;1.80;;;;;21.01;15.23;98152.25;5000921;28;8804;-43
2021/05/06 14:06:22;;;;;;;;;1.00;1.00;;;;;21.04;15.13;98155.03;5004629;28;8828;-43
2021/05/06 14:08:47;;;;;;;;;2.00;2.00;;;;;21.04;15.09;98151.50;4991543;28;8832;-43
2021/05/06 14:11:13;;;;;;;;;1.75;1.75;;;;;21.07;14.81;98151.56;4999840;28;8815;-44
2021/05/06 14:13:40;;;;;;;;;1.00;1.00;;;;;21.04;14.82;98149.56;5004509;28;8803;-44
2021/05/06 14:16:05;;;;;;;;;1.00;1.00;;;;;20.99;14.99;98163.59;5000605;28;8863;-45
2021/05/06 14:18:30;;;;;;;;;1.50;1.50;;;;;20.98;14.84;98160.06;5002091;28;8820;-45
2021/05/06 14:21:01;;;;;;;;;1.75;1.75;;;;;21.01;14.80;98163.22;4985540;28;8877;-45
2021/05/06 14:23:27;;;;;;;;;2.00;2.00;;;;;21.00;14.66;98162.41;4987894;28;8794;-45
2021/05/06 14:25:53;;;;;;;;;2.60;2.60;;;;;20.96;14.74;98167.06;5002134;28;8816;-44
2021/05/06 14:28:19;;;;;;;;;1.00;1.00;;;;;20.97;14.66;98169.44;5003829;28;8734;-45
2021/05/06 14:30:44;;;;;;;;;1.50;1.50;;;;;20.98;14.68;98162.81;5004184;28;8792;-45
2021/05/06 14:33:09;;;;;;;;;2.00;2.00;;;;;21.01;14.63;98166.75;4999347;28;8844;-45
2021/05/06 14:35:35;;;;;;;;;2.00;2.00;;;;;21.02;14.62;98168.34;4988087;28;8794;-45
2021/05/06 14:38:00;;;;;;;;;2.00;2.00;;;;;21.01;14.44;98166.75;4982198;28;8791;-45
2021/05/06 14:40:26;;;;;;;;;2.00;2.00;;;;;21.06;14.50;98166.41;4986014;28;8765;-45
2021/05/06 14:42:51;;;;;;;;;1.75;1.75;;;;;21.03;14.37;98163.63;5001826;28;8903;-45
2021/05/06 14:45:16;;;;;;;;;2.00;2.00;;;;;21.07;14.33;98169.94;5003049;28;8792;-44
2021/05/06 14:47:42;;;;;;;;;2.00;2.00;;;;;21.05;14.45;98158.56;5001143;28;8834;-45
2021/05/06 14:50:11;;;;;;;;;2.00;1.80;;;;;21.10;14.22;98164.50;4993100;28;8826;-45
2021/05/06 14:52:38;;;;;;;;;1.80;1.80;;;;;21.10;14.33;98161.75;4985331;28;9866;-45
2021/05/06 14:55:06;;;;;;;;;1.20;1.20;;;;;21.09;14.18;98160.19;5001612;28;10970;-45
2021/05/06 14:57:31;;;;;;;;;1.00;1.00;;;;;21.09;14.23;98162.94;5000767;28;8828;-46
2021/05/06 14:59:57;;;;;;;;;2.00;2.00;;;;;21.04;14.16;98159.75;4984694;28;8850;-45
2021/05/06 15:02:22;;;;;;;;;2.00;2.00;;;;;21.06;14.32;98162.88;5002439;28;8840;-45
2021/05/06 15:04:47;;;;;;;;;3.00;3.00;;;;;21.06;14.32;98166.41;4999587;28;8816;-43
2021/05/06 15:07:13;;;;;;;;;2.00;2.00;;;;;21.08;14.21;98160.56;4998356;28;8827;-43
2021/05/06 15:09:38;;;;;;;;;2.00;2.00;;;;;21.06;14.13;98169.16;5002956;28;8792;-43